createdAt,value
2022-11-22T00:00:01.103Z,99227.06
2022-11-22T00:05:03.822Z,99226.03
2022-11-22T00:10:09.016Z,99219.69
2022-11-22T00:15:12.351Z,99200.69
2022-11-22T00:20:14.672Z,99211.28
2022-11-22T00:25:17.057Z,99184.06
2022-11-22T00:30:19.330Z,99185.81
2022-11-22T00:35:21.364Z,99178.66
2022-11-22T00:40:23.455Z,99180.06
2022-11-22T00:45:25.469Z,99173.63
2022-11-22T00:50:27.564Z,99170.50
2022-11-22T00:55:29.601Z,99160.94
2022-11-22T01:00:31.861Z,99157.00
2022-11-22T01:05:33.978Z,99154.50
2022-11-22T01:10:37.826Z,99142.97
2022-11-22T01:15:39.935Z,99128.91
2022-11-22T01:20:41.964Z,99127.88
2022-11-22T01:25:44.934Z,99117.75
2022-11-22T01:30:51.167Z,99112.44
2022-11-22T01:35:54.291Z,99113.94
2022-11-22T01:40:56.331Z,99105.91
2022-11-22T01:46:02.769Z,99123.78
2022-11-22T01:51:35.439Z,99102.13
2022-11-22T01:56:40.516Z,99098.50
2022-11-22T02:01:42.631Z,99085.50
2022-11-22T02:06:56.585Z,99082.38
2022-11-22T02:12:02.287Z,99075.84
2022-11-22T02:17:04.351Z,99054.41
2022-11-22T02:22:38.686Z,99038.06
2022-11-22T02:27:40.720Z,99047.44
2022-11-22T02:32:42.999Z,99027.38
2022-11-22T02:37:45.369Z,99024.88
2022-11-22T02:42:55.788Z,99022.31
2022-11-22T02:48:09.288Z,99008.38
2022-11-22T02:53:12.666Z,99000.66
2022-11-22T02:58:14.728Z,98999.38
2022-11-22T03:03:16.899Z,98998.09
2022-11-22T03:08:18.866Z,98991.94
2022-11-22T03:13:20.855Z,98980.59
2022-11-22T03:18:22.834Z,98977.78
2022-11-22T03:23:24.781Z,98961.13
2022-11-22T03:28:27.125Z,98949.44
2022-11-22T03:33:29.106Z,98943.53
2022-11-22T03:38:31.360Z,98937.72
2022-11-22T03:43:33.535Z,98944.25
2022-11-22T03:48:35.620Z,98931.94
2022-11-22T03:53:38.545Z,98930.41
2022-11-22T03:58:40.759Z,98921.66
2022-11-22T04:03:42.828Z,98917.41
2022-11-22T04:08:45.022Z,98926.63
2022-11-22T04:14:05.552Z,98905.00
2022-11-22T04:19:07.723Z,98889.03
2022-11-22T04:24:29.901Z,98895.06
2022-11-22T04:29:32.302Z,98884.66
2022-11-22T04:34:35.417Z,98878.63
2022-11-22T04:39:37.434Z,98863.72
2022-11-22T04:44:42.936Z,98836.66
2022-11-22T04:49:44.932Z,98847.66
2022-11-22T04:54:46.936Z,98841.88
2022-11-22T04:59:48.907Z,98844.25
2022-11-22T05:04:51.051Z,98844.47
2022-11-22T05:09:53.129Z,98831.94
2022-11-22T05:14:55.290Z,98821.63
2022-11-22T05:19:57.307Z,98811.81
2022-11-22T05:24:59.357Z,98793.00
2022-11-22T05:30:01.483Z,98762.75
2022-11-22T05:35:05.787Z,98784.00
2022-11-22T05:40:08.653Z,98778.09
2022-11-22T05:45:10.833Z,98768.28
2022-11-22T05:50:13.251Z,98745.22
2022-11-22T05:55:15.452Z,98768.81
2022-11-22T06:00:18.191Z,98757.09
2022-11-22T06:05:20.231Z,98740.03
2022-11-22T06:10:22.392Z,98736.31
2022-11-22T06:15:24.540Z,98728.50
2022-11-22T06:20:27.092Z,98726.34
2022-11-22T06:25:29.158Z,98742.41
2022-11-22T06:30:31.294Z,98724.88
2022-11-22T06:35:33.355Z,98728.47
2022-11-22T06:40:35.421Z,98721.97
2022-11-22T06:45:37.433Z,98707.72
2022-11-22T06:50:39.463Z,98702.19
2022-11-22T06:55:50.494Z,98693.22
2022-11-22T07:00:53.573Z,98697.63
2022-11-22T07:05:56.069Z,98700.81
2022-11-22T07:11:09.445Z,98684.47
2022-11-22T07:16:13.994Z,98690.22
2022-11-22T07:21:21.946Z,98693.81
2022-11-22T07:26:25.681Z,98688.84
2022-11-22T07:31:28.441Z,98660.94
2022-11-22T07:36:30.713Z,98687.81
2022-11-22T07:41:32.729Z,98678.97
2022-11-22T07:46:34.737Z,98668.16
2022-11-22T07:51:36.699Z,98679.19
2022-11-22T07:56:38.677Z,98661.78
2022-11-22T08:01:40.685Z,98662.88
2022-11-22T08:06:42.773Z,98639.31
2022-11-22T08:11:44.770Z,98658.53
2022-11-22T08:16:46.961Z,98665.66
2022-11-22T08:21:53.911Z,98666.50
2022-11-22T08:26:59.023Z,98663.25
2022-11-22T08:32:01.075Z,98663.38
2022-11-22T08:37:03.401Z,98634.50
2022-11-22T08:42:07.131Z,98659.81
2022-11-22T08:47:09.078Z,98632.34
2022-11-22T08:52:11.166Z,98641.28
2022-11-22T08:57:13.271Z,98633.59
2022-11-22T09:02:15.361Z,98627.69
2022-11-22T09:12:43.785Z,98619.06
2022-11-22T09:17:45.782Z,98592.53
2022-11-22T09:22:47.774Z,98588.00
2022-11-22T09:27:49.902Z,98614.91
2022-11-22T09:32:52.014Z,98609.97
2022-11-22T09:37:54.053Z,98611.50
2022-11-22T09:43:04.996Z,98610.53
2022-11-22T09:48:21.854Z,98611.06
2022-11-22T09:53:34.905Z,98610.38
2022-11-22T09:58:49.022Z,98599.91
2022-11-22T10:04:05.539Z,98610.09
2022-11-22T10:09:30.205Z,98601.94
2022-11-22T10:14:49.518Z,98602.81
2022-11-22T10:20:01.957Z,98584.13
2022-11-22T10:25:29.433Z,98605.66
2022-11-22T10:30:39.348Z,98585.44
2022-11-22T10:35:59.491Z,98570.44
2022-11-22T10:41:07.123Z,98582.81
2022-11-22T10:46:38.997Z,98572.88
2022-11-22T10:52:25.165Z,98548.72
2022-11-22T10:57:45.878Z,98562.81
2022-11-22T11:03:08.018Z,98552.63
2022-11-22T11:08:42.130Z,98544.91
2022-11-22T11:14:00.811Z,98527.72
2022-11-22T11:19:11.664Z,98531.31
2022-11-22T11:24:15.516Z,98528.81
2022-11-22T11:29:17.776Z,98523.88
2022-11-22T11:34:26.494Z,98527.38
2022-11-22T11:39:31.302Z,98522.16
2022-11-22T11:44:37.825Z,98527.66
2022-11-22T11:49:51.063Z,98522.13
2022-11-22T11:54:56.453Z,98519.41
2022-11-22T12:00:01.601Z,98528.59
2022-11-22T12:05:06.146Z,98521.34
2022-11-22T12:10:29.699Z,98506.66
2022-11-22T12:15:50.318Z,98511.66
2022-11-22T12:20:55.476Z,98509.72
2022-11-22T12:25:58.603Z,98518.81
2022-11-22T12:31:23.944Z,98510.91
2022-11-22T12:36:33.022Z,98516.28
2022-11-22T12:41:36.746Z,98513.84
2022-11-22T12:46:41.991Z,98511.97
2022-11-22T12:51:53.410Z,98503.97
2022-11-22T12:56:59.072Z,98487.22
2022-11-22T13:02:22.217Z,98492.69
2022-11-22T13:07:36.240Z,98503.69
2022-11-22T13:12:41.328Z,98488.19
2022-11-22T13:17:43.413Z,98499.56
2022-11-22T13:23:30.616Z,98486.06
2022-11-22T13:28:37.667Z,98496.28
2022-11-22T13:33:58.065Z,98491.59
2022-11-22T13:39:07.104Z,98505.88
2022-11-22T13:44:36.421Z,98462.38
2022-11-22T13:49:49.007Z,98488.69
2022-11-22T13:54:53.205Z,98503.16
2022-11-22T14:00:16.777Z,98496.88
2022-11-22T14:05:39.710Z,98495.41
2022-11-22T14:11:31.002Z,98480.53
2022-11-22T14:16:47.888Z,98490.31
2022-11-22T14:22:31.154Z,98485.53
2022-11-22T14:27:57.476Z,98486.75
2022-11-22T14:33:20.623Z,98488.00
2022-11-22T14:38:28.297Z,98468.09
2022-11-22T14:43:39.028Z,98472.91
2022-11-22T14:48:54.828Z,98463.09
2022-11-22T14:54:01.138Z,98464.22
2022-11-22T14:59:22.753Z,98467.75
2022-11-22T15:09:10.059Z,98467.47
2022-11-22T15:10:27.117Z,98469.53
2022-11-22T15:59:47.007Z,98480.41
2022-11-22T16:06:05.619Z,98467.97
2022-11-22T16:10:23.366Z,98475.50
2022-11-22T16:15:39.252Z,98473.56
2022-11-22T16:20:42.939Z,98449.06
2022-11-22T16:25:50.124Z,98465.28
2022-11-22T16:30:57.834Z,98463.41
2022-11-22T16:36:01.273Z,98469.59
2022-11-22T16:41:03.599Z,98465.88
2022-11-22T16:46:07.225Z,98461.44
2022-11-22T16:51:21.123Z,98449.66
2022-11-22T16:56:25.950Z,98448.75
2022-11-22T17:01:33.362Z,98444.34
2022-11-22T17:06:35.515Z,98449.56
2022-11-22T17:11:37.755Z,98441.19
2022-11-22T17:16:39.935Z,98445.47
2022-11-22T17:21:43.673Z,98444.63
2022-11-22T17:26:45.853Z,98422.97
2022-11-22T17:31:48.916Z,98421.53
2022-11-22T17:36:50.898Z,98431.78
2022-11-22T17:41:52.883Z,98431.78
2022-11-22T17:46:55.901Z,98442.25
2022-11-22T17:51:57.977Z,98455.84
2022-11-22T17:57:01.137Z,98446.34
2022-11-22T18:02:03.285Z,98443.59
2022-11-22T18:07:05.899Z,98423.84
2022-11-22T18:12:08.071Z,98424.66
2022-11-22T18:17:10.700Z,98458.78
2022-11-22T18:22:12.701Z,98455.47
2022-11-22T18:27:15.298Z,98446.66
2022-11-22T18:32:17.387Z,98435.66
2022-11-22T18:37:20.333Z,98437.97
2022-11-22T18:42:23.540Z,98443.22
2022-11-22T18:47:26.594Z,98444.34
2022-11-22T18:52:28.672Z,98454.13
2022-11-22T18:57:30.678Z,98460.84
2022-11-22T19:02:33.384Z,98460.19
2022-11-22T19:07:35.817Z,98456.59
2022-11-22T19:12:37.946Z,98443.50
2022-11-22T19:17:40.225Z,98438.81
2022-11-22T19:22:42.270Z,98444.72
2022-11-22T19:27:44.233Z,98448.16
2022-11-22T19:32:46.201Z,98443.44
2022-11-22T19:37:48.195Z,98430.34
2022-11-22T19:42:50.249Z,98426.25
2022-11-22T19:47:52.262Z,98427.75
2022-11-22T19:52:54.238Z,98426.91
2022-11-22T19:57:56.342Z,98434.44
2022-11-22T20:02:59.941Z,98427.94
2022-11-22T20:08:01.936Z,98418.56
2022-11-22T20:13:07.914Z,98412.38
2022-11-22T20:18:12.985Z,98432.19
2022-11-22T20:23:14.971Z,98443.03
2022-11-22T20:28:18.210Z,98445.66
2022-11-22T20:33:20.192Z,98451.03
2022-11-22T20:38:22.171Z,98455.75
2022-11-22T20:43:24.325Z,98443.09
2022-11-22T20:48:26.459Z,98445.44
2022-11-22T20:53:29.348Z,98454.31
2022-11-22T20:58:32.131Z,98449.31
2022-11-22T21:03:34.720Z,98446.72
2022-11-22T21:08:36.794Z,98432.28
2022-11-22T21:13:39.364Z,98419.19
2022-11-22T21:18:41.614Z,98424.13
2022-11-22T21:23:43.764Z,98421.81
2022-11-22T21:28:46.029Z,98411.34
2022-11-22T21:33:49.943Z,98410.75
2022-11-22T21:38:52.004Z,98414.34
2022-11-22T21:43:56.638Z,98418.44
2022-11-22T21:48:58.801Z,98410.75
2022-11-22T21:54:01.945Z,98422.56
2022-11-22T21:59:04.070Z,98409.91
2022-11-22T22:04:07.210Z,98413.22
2022-11-22T22:09:09.311Z,98413.50
2022-11-22T22:14:11.514Z,98415.16
2022-11-22T22:19:14.940Z,98401.09
2022-11-22T22:24:16.976Z,98396.66
2022-11-22T22:29:18.939Z,98371.88
2022-11-22T22:34:20.894Z,98399.97
2022-11-22T22:39:22.952Z,98390.16
2022-11-22T22:44:25.001Z,98373.91
2022-11-22T22:49:27.030Z,98363.75
2022-11-22T22:54:29.050Z,98364.22
2022-11-22T22:59:31.344Z,98367.19
2022-11-22T23:04:33.465Z,98376.59
2022-11-22T23:09:35.575Z,98353.28
2022-11-22T23:14:41.426Z,98361.19
2022-11-22T23:19:43.637Z,98367.56
2022-11-22T23:24:45.595Z,98367.41
2022-11-22T23:29:47.643Z,98353.94
2022-11-22T23:34:49.762Z,98371.00
2022-11-22T23:39:51.756Z,98371.81
2022-11-22T23:44:53.790Z,98378.53
2022-11-22T23:49:55.794Z,98369.19
2022-11-22T23:54:58.076Z,98375.41
